Time;durP1;ratioP1;P1;durP2;ratioP2;P2;SDS_P1;SDS_P2;PMS_P1;PMS_P2;Temp;Humidity;BMP_temperature;BMP_pressure;BME280_temperature;BME280_humidity;BME280_pressure;Samples;Min_cycle;Max_cycle;Signal;HPM_P1;HPM_P2
2022/03/03 00:04:24;;;;;;;35.60;24.98;;;;;;;-2.42;72.23;100646.69;10505922;28;20037;-73
2022/03/03 00:09:26;;;;;;;30.83;24.10;;;;;;;-2.65;72.85;100643.41;10505949;28;20036;-72
2022/03/03 00:14:27;;;;;;;38.63;23.27;;;;;;;-2.74;73.25;100650.84;10470484;28;20044;-73
2022/03/03 00:19:29;;;;;;;36.55;24.05;;;;;;;-2.65;73.17;100658.84;10506199;28;20383;-74
2022/03/03 00:24:31;;;;;;;27.40;22.80;;;;;;;-2.13;72.17;100660.41;10503620;28;20067;-72
2022/03/03 00:29:32;;;;;;;32.72;24.27;;;;;;;-2.21;71.97;100654.19;10485594;28;20045;-74
2022/03/03 00:34:34;;;;;;;29.95;23.75;;;;;;;-2.45;72.17;100662.03;10486849;28;20071;-73
2022/03/03 00:39:36;;;;;;;35.08;23.20;;;;;;;-2.31;72.49;100645.28;10502358;28;20048;-73
2022/03/03 00:44:37;;;;;;;35.58;23.52;;;;;;;-2.54;73.20;100630.84;10503014;28;20090;-72
2022/03/03 00:49:39;;;;;;;30.23;22.55;;;;;;;-2.78;73.95;100632.69;10502854;28;20040;-74
2022/03/03 00:54:41;;;;;;;28.17;23.42;;;;;;;-2.93;74.24;100615.03;10502510;28;20148;-73
2022/03/03 00:59:42;;;;;;;31.48;22.15;;;;;;;-3.04;75.41;100604.41;10501558;28;20045;-72
2022/03/03 01:04:44;;;;;;;29.65;22.35;;;;;;;-3.16;74.83;100607.47;10501770;28;20044;-75
2022/03/03 01:09:45;;;;;;;34.92;24.30;;;;;;;-3.19;74.92;100599.63;10501086;28;20106;-72
2022/03/03 01:14:47;;;;;;;37.97;24.65;;;;;;;-3.13;75.34;100581.84;10501662;28;20146;-73
2022/03/03 01:19:49;;;;;;;25.75;22.90;;;;;;;-2.88;74.23;100583.50;10468487;28;20083;-74
2022/03/03 01:24:51;;;;;;;30.25;23.23;;;;;;;-3.02;74.57;100571.03;10505322;28;20420;-73
2022/03/03 01:29:53;;;;;;;29.40;23.20;;;;;;;-3.03;74.22;100559.00;10505164;28;20095;-72
2022/03/03 01:34:54;;;;;;;31.05;22.75;;;;;;;-3.23;74.54;100563.50;10487835;28;20048;-72
2022/03/03 01:39:56;;;;;;;29.73;23.33;;;;;;;-3.50;76.04;100566.03;10486723;28;20074;-72
2022/03/03 01:44:58;;;;;;;33.70;23.88;;;;;;;-3.49;77.07;100572.94;10504642;28;20040;-73
2022/03/03 01:50:00;;;;;;;37.83;26.00;;;;;;;-3.42;77.31;100573.19;10504585;28;20036;-72
2022/03/03 01:55:03;;;;;;;32.13;23.83;;;;;;;-3.32;77.21;100577.81;10486850;28;20074;-71
2022/03/03 02:00:07;;;;;;;35.33;23.55;;;;;;;-2.66;75.32;100567.00;10503986;28;20051;-73
2022/03/03 02:05:12;;;;;;;38.33;23.73;;;;;;;-3.03;75.86;100565.00;10494285;28;20056;-72
2022/03/03 02:10:14;;;;;;;40.00;24.05;;;;;;;-3.49;76.74;100576.38;10493631;28;20072;-72
2022/03/03 02:15:18;;;;;;;39.05;24.92;;;;;;;-3.16;77.42;100563.75;10493990;28;20139;-72
2022/03/03 02:20:26;;;;;;;35.83;24.27;;;;;;;-3.08;76.84;100559.72;10512260;28;20422;-71
2022/03/03 02:25:27;;;;;;;39.28;24.73;;;;;;;-3.21;78.02;100542.16;10511758;28;20131;-72
2022/03/03 02:30:29;;;;;;;33.08;23.05;;;;;;;-3.41;76.45;100540.63;10511900;28;20028;-73
2022/03/03 02:35:31;;;;;;;39.03;23.65;;;;;;;-3.59;77.17;100540.91;10495049;28;20067;-73
2022/03/03 02:40:33;;;;;;;26.85;21.42;;;;;;;-3.55;77.57;100545.31;10494037;28;20048;-73
2022/03/03 02:45:34;;;;;;;33.13;22.60;;;;;;;-3.57;77.97;100540.16;10493279;28;20045;-72
2022/03/03 02:50:36;;;;;;;30.90;22.90;;;;;;;-3.64;78.30;100555.31;10511905;28;20052;-72
2022/03/03 02:55:38;;;;;;;32.45;22.40;;;;;;;-3.61;78.16;100566.56;10493400;28;20056;-71
2022/03/03 03:00:43;;;;;;;27.67;23.15;;;;;;;-3.39;78.11;100551.84;10510590;28;20040;-73
2022/03/03 03:05:46;;;;;;;36.22;23.42;;;;;;;-2.98;77.24;100544.56;10513283;28;20049;-73
2022/03/03 03:10:47;;;;;;;34.85;23.38;;;;;;;-3.28;77.30;100542.78;10511347;28;20505;-72
2022/03/03 03:15:49;;;;;;;32.97;23.52;;;;;;;-3.42;78.82;100544.91;10493044;28;20052;-73
2022/03/03 03:20:53;;;;;;;34.28;24.15;;;;;;;-3.27;79.06;100544.56;10493247;28;20040;-72
2022/03/03 03:25:55;;;;;;;35.42;23.65;;;;;;;-3.18;78.82;100542.28;10511985;28;20044;-71
2022/03/03 03:30:57;;;;;;;35.22;23.00;;;;;;;-3.21;78.17;100525.88;10512421;28;20115;-73
2022/03/03 03:35:59;;;;;;;31.33;23.15;;;;;;;-3.65;78.71;100533.88;10512744;28;20094;-71
2022/03/03 03:41:01;;;;;;;39.00;24.70;;;;;;;-3.78;79.79;100534.28;10511540;28;20041;-71
2022/03/03 03:46:03;;;;;;;38.70;24.00;;;;;;;-3.42;79.72;100516.63;10493987;28;20059;-71
2022/03/03 03:51:05;;;;;;;27.05;21.77;;;;;;;-3.21;78.30;100516.44;10509748;28;20063;-71
2022/03/03 03:56:06;;;;;;;35.63;23.38;;;;;;;-3.41;78.96;100520.06;10492378;28;20075;-71
2022/03/03 04:01:08;;;;;;;29.27;20.90;;;;;;;-3.71;79.43;100518.28;10510019;28;20408;-71
2022/03/03 04:06:10;;;;;;;31.33;21.88;;;;;;;-3.26;77.55;100496.56;10491508;28;20102;-71
2022/03/03 04:11:11;;;;;;;31.77;22.83;;;;;;;-3.84;78.92;100503.28;10508931;28;20044;-70
2022/03/03 04:16:13;;;;;;;36.60;23.13;;;;;;;-3.89;79.87;100494.53;10490633;28;20393;-71
2022/03/03 04:21:15;;;;;;;33.30;22.65;;;;;;;-3.92;79.43;100495.31;10507794;28;20044;-72
2022/03/03 04:26:16;;;;;;;34.95;22.83;;;;;;;-3.71;78.46;100489.16;10490517;28;20056;-71
2022/03/03 04:31:18;;;;;;;31.70;23.98;;;;;;;-4.08;79.74;100493.88;10506763;28;20124;-72
2022/03/03 04:36:20;;;;;;;33.78;23.70;;;;;;;-4.21;79.59;100489.16;10507012;28;20048;-73
2022/03/03 04:41:22;;;;;;;34.25;23.02;;;;;;;-4.26;80.15;100493.25;10472234;28;20041;-72
2022/03/03 04:46:23;;;;;;;40.97;23.60;;;;;;;-4.33;80.43;100512.72;10487571;28;20044;-71
2022/03/03 04:51:31;;;;;;;46.25;26.80;;;;;;;-4.23;80.64;100495.94;10505315;28;20486;-71
2022/03/03 04:56:33;;;;;;;37.30;23.75;;;;;;;-3.89;80.05;100497.97;10487390;28;20127;-71
2022/03/03 05:01:35;;;;;;;35.20;22.60;;;;;;;-3.69;78.37;100490.91;10508986;28;20094;-73
2022/03/03 05:06:37;;;;;;;39.50;24.80;;;;;;;-3.91;79.42;100485.91;10506798;28;20093;-72
2022/03/03 05:11:39;;;;;;;50.85;24.55;;;;;;;-3.82;80.25;100474.22;10490586;28;20066;-72
2022/03/03 05:16:41;;;;;;;35.10;24.45;;;;;;;-4.02;80.25;100466.72;10507295;28;20132;-71
2022/03/03 05:21:43;;;;;;;40.67;25.08;;;;;;;-4.29;80.87;100474.31;10489505;28;20036;-71
2022/03/03 05:26:45;;;;;;;48.35;25.77;;;;;;;-3.98;81.56;100453.16;10505762;28;20444;-71
2022/03/03 05:31:46;;;;;;;42.53;24.77;;;;;;;-4.13;82.08;100448.34;10507288;28;20040;-72
2022/03/03 05:36:48;;;;;;;47.70;24.55;;;;;;;-3.73;81.07;100440.25;10486620;28;20078;-72
2022/03/03 05:41:50;;;;;;;33.45;23.20;;;;;;;-3.66;80.31;100434.50;10505421;28;20040;-72
2022/03/03 05:46:52;;;;;;;38.50;25.35;;;;;;;-3.98;81.03;100450.59;10483724;28;20044;-72
2022/03/03 05:51:54;;;;;;;46.05;26.17;;;;;;;-3.88;82.02;100460.31;10503759;28;20044;-72
2022/03/03 05:56:57;;;;;;;36.88;26.48;;;;;;;-3.75;81.63;100462.47;10502683;28;20044;-71
2022/03/03 06:01:59;;;;;;;42.10;26.40;;;;;;;-3.73;81.49;100460.81;10500539;28;20044;-72
2022/03/03 06:07:09;;;;;;;50.50;26.38;;;;;;;-3.80;81.33;100466.59;10482783;28;20085;-72
2022/03/03 06:12:20;;;;;;;38.15;24.83;;;;;;;-3.72;81.76;100470.25;10500764;28;20049;-72
2022/03/03 06:17:24;;;;;;;32.47;24.48;;;;;;;-3.31;79.99;100460.44;10500326;28;20068;-72
2022/03/03 06:22:27;;;;;;;39.85;25.67;;;;;;;-3.27;80.17;100458.84;10502265;28;20158;-73
2022/03/03 06:27:29;;;;;;;43.20;27.48;;;;;;;-3.50;80.99;100471.81;10499599;28;20101;-72
2022/03/03 06:32:31;;;;;;;48.20;25.77;;;;;;;-3.36;81.50;100467.16;10500800;28;20091;-71
2022/03/03 06:37:33;;;;;;;28.70;23.02;;;;;;;-3.34;80.97;100468.03;10499611;28;20387;-72
2022/03/03 06:42:34;;;;;;;33.22;23.95;;;;;;;-3.23;80.27;100465.78;10501982;28;20041;-73
2022/03/03 06:47:37;;;;;;;41.10;25.88;;;;;;;-3.12;80.20;100478.16;10499130;28;20043;-71
2022/03/03 06:52:39;;;;;;;35.15;24.17;;;;;;;-2.86;79.91;100457.50;10505517;28;20036;-71
2022/03/03 06:57:41;;;;;;;37.53;23.08;;;;;;;-2.32;79.11;100450.44;10505110;28;20094;-73
2022/03/03 07:02:43;;;;;;;31.55;21.77;;;;;;;-1.07;72.15;100451.72;10506137;28;20040;-71
2022/03/03 07:07:46;;;;;;;26.77;22.58;;;;;;;-0.99;72.04;100444.16;10505112;28;20054;-71
2022/03/03 07:12:50;;;;;;;30.65;21.70;;;;;;;-0.75;70.84;100465.34;10505237;28;20044;-71
2022/03/03 07:18:00;;;;;;;33.65;22.95;;;;;;;-0.72;68.37;100447.31;10504536;28;20098;-71
2022/03/03 07:23:07;;;;;;;38.88;22.98;;;;;;;-0.82;69.14;100456.56;10504690;28;20044;-71
2022/03/03 07:28:11;;;;;;;25.27;21.48;;;;;;;-1.14;68.74;100467.94;10504683;28;20044;-72
2022/03/03 07:33:19;;;;;;;29.40;21.38;;;;;;;-1.45;69.58;100454.31;10505123;28;20041;-73
2022/03/03 07:38:26;;;;;;;34.40;21.33;;;;;;;-1.06;69.54;100469.84;10485470;28;20417;-72
2022/03/03 07:43:28;;;;;;;30.98;21.38;;;;;;;-0.64;67.60;100462.97;10505750;28;20429;-72
2022/03/03 07:48:31;;;;;;;33.38;21.67;;;;;;;-0.94;68.61;100453.72;10503361;28;20044;-72
2022/03/03 07:53:32;;;;;;;26.45;20.58;;;;;;;-0.12;68.58;100444.16;10504838;28;20050;-72
2022/03/03 07:58:42;;;;;;;30.15;21.73;;;;;;;0.85;63.25;100446.59;10502794;28;20452;-72
2022/03/03 08:03:46;;;;;;;27.55;20.88;;;;;;;0.56;64.26;100434.94;10502506;28;20040;-72
2022/03/03 08:08:47;;;;;;;23.45;20.40;;;;;;;0.72;65.24;100435.19;10484410;28;20079;-72
2022/03/03 08:13:52;;;;;;;25.20;21.73;;;;;;;0.70;64.01;100442.03;10502588;28;20074;-71
2022/03/03 08:18:57;;;;;;;26.33;21.63;;;;;;;0.96;63.50;100451.91;10484964;28;20421;-71
2022/03/03 08:24:02;;;;;;;26.02;21.08;;;;;;;1.05;63.12;100451.16;10501730;28;20033;-74
2022/03/03 08:29:04;;;;;;;26.42;20.67;;;;;;;0.91;62.87;100453.56;10501517;28;20048;-74
2022/03/03 08:34:19;;;;;;;34.58;21.63;;;;;;;1.05;63.38;100469.28;10502200;28;20053;-71
2022/03/03 08:39:28;;;;;;;36.38;21.00;;;;;;;1.40;61.72;100473.19;10501393;28;20106;-72
2022/03/03 08:44:35;;;;;;;27.90;21.40;;;;;;;1.43;61.34;100472.38;10500781;28;20075;-70
2022/03/03 08:49:40;;;;;;;27.67;22.23;;;;;;;1.23;62.61;100488.50;10500733;28;20075;-71
2022/03/03 08:54:41;;;;;;;27.98;21.45;;;;;;;1.65;61.04;100483.88;10501112;28;20044;-72
2022/03/03 08:59:43;;;;;;;33.53;22.20;;;;;;;2.01;60.08;100478.19;10499950;28;20485;-72
2022/03/03 09:04:46;;;;;;;33.10;20.35;;;;;;;2.20;60.16;100474.06;10500838;28;20052;-72
2022/03/03 09:09:47;;;;;;;32.28;20.80;;;;;;;2.33;59.53;100475.03;10500681;28;20105;-71
2022/03/03 09:14:49;;;;;;;29.73;22.00;;;;;;;2.79;58.32;100476.28;10499750;28;20044;-72
2022/03/03 09:19:51;;;;;;;25.80;21.42;;;;;;;2.74;57.91;100465.84;10500652;28;20118;-72
2022/03/03 09:24:54;;;;;;;23.30;20.90;;;;;;;2.89;58.99;100456.44;10500730;28;20044;-71
2022/03/03 09:29:56;;;;;;;26.30;21.83;;;;;;;3.14;57.84;100447.03;10499927;28;20044;-71
2022/03/03 09:34:57;;;;;;;24.08;21.70;;;;;;;3.66;55.63;100450.69;10481869;28;20098;-72
2022/03/03 09:39:59;;;;;;;24.05;21.23;;;;;;;3.96;54.09;100433.44;10499606;28;20410;-72
2022/03/03 09:45:04;;;;;;;25.17;20.95;;;;;;;4.25;51.43;100436.06;10499946;28;20498;-72
2022/03/03 09:50:07;;;;;;;23.35;21.15;;;;;;;4.04;51.52;100424.78;10499956;28;20575;-71
2022/03/03 09:55:09;;;;;;;21.15;18.80;;;;;;;4.04;48.30;100421.31;10482175;28;20040;-71
2022/03/03 10:00:12;;;;;;;24.45;20.58;;;;;;;4.21;48.34;100419.59;10498920;28;20044;-72
2022/03/03 10:05:29;;;;;;;25.23;20.67;;;;;;;4.58;48.57;100432.59;10497149;28;20051;-72
2022/03/03 10:10:32;;;;;;;23.40;19.73;;;;;;;4.53;48.25;100424.78;10498372;28;20577;-71
2022/03/03 10:15:35;;;;;;;20.92;18.77;;;;;;;4.81;46.70;100422.13;10480371;28;20050;-71
2022/03/03 10:20:46;;;;;;;21.75;18.75;;;;;;;4.94;45.25;100420.38;10498492;28;20052;-71
2022/03/03 10:25:48;;;;;;;22.77;17.73;;;;;;;5.48;43.33;100426.25;10505426;28;20036;-71
2022/03/03 10:31:10;;;;;;;16.70;15.10;;;;;;;5.67;40.87;100416.59;10505489;28;20036;-70
2022/03/03 10:36:18;;;;;;;18.02;16.17;;;;;;;5.67;41.44;100406.16;10488482;28;20064;-70
2022/03/03 10:41:35;;;;;;;18.95;17.25;;;;;;;6.19;41.11;100411.91;10505582;28;20040;-71
2022/03/03 10:47:07;;;;;;;19.55;17.60;;;;;;;6.68;39.64;100405.38;10505226;28;20155;-71
2022/03/03 10:52:09;;;;;;;19.33;17.45;;;;;;;6.74;40.11;100402.72;10504210;28;20048;-73
2022/03/03 10:57:10;;;;;;;19.83;16.67;;;;;;;6.17;40.78;100399.75;10504270;28;20044;-71
2022/03/03 11:02:13;;;;;;;20.33;17.83;;;;;;;7.11;39.99;100390.09;10503946;28;20087;-71
2022/03/03 11:07:15;;;;;;;18.92;17.23;;;;;;;7.56;39.39;100379.94;10504671;28;20456;-71
2022/03/03 11:12:19;;;;;;;19.23;17.48;;;;;;;7.47;39.21;100378.31;10486653;28;20040;-70
2022/03/03 11:17:21;;;;;;;25.10;18.13;;;;;;;7.86;39.54;100368.16;10499679;28;20490;-70
2022/03/03 11:22:23;;;;;;;19.13;17.23;;;;;;;7.64;39.92;100361.50;10502491;28;20044;-70
2022/03/03 11:27:37;;;;;;;20.70;17.30;;;;;;;7.93;38.98;100363.72;10486436;28;20053;-70
2022/03/03 11:32:39;;;;;;;19.02;17.33;;;;;;;8.44;38.31;100361.97;10484349;28;20437;-72
2022/03/03 11:37:44;;;;;;;18.77;16.98;;;;;;;8.95;36.87;100359.28;10501977;28;20040;-70
2022/03/03 11:42:55;;;;;;;18.13;16.52;;;;;;;8.99;39.42;100360.09;10502966;28;20050;-71
2022/03/03 11:48:15;;;;;;;17.63;16.13;;;;;;;9.04;36.56;100348.63;10502361;28;20485;-71
2022/03/03 11:53:22;;;;;;;17.75;16.13;;;;;;;8.25;38.72;100352.69;10499241;28;20090;-71
2022/03/03 11:58:31;;;;;;;18.40;16.70;;;;;;;8.29;38.46;100344.75;10490141;28;20045;-71
2022/03/03 12:04:03;;;;;;;19.40;17.50;;;;;;;8.24;39.49;100345.75;10496725;28;20041;-71
2022/03/03 12:09:26;;;;;;;19.90;18.02;;;;;;;7.48;39.74;100339.94;10502545;28;20103;-71
2022/03/03 12:14:31;;;;;;;18.75;17.25;;;;;;;8.20;39.70;100344.06;10501545;28;20534;-71
2022/03/03 12:19:36;;;;;;;19.42;17.73;;;;;;;8.37;38.96;100334.19;10502331;28;20033;-71
2022/03/03 12:24:38;;;;;;;25.02;17.58;;;;;;;7.59;38.93;100336.28;10501566;28;20055;-70
2022/03/03 12:29:39;;;;;;;19.23;17.23;;;;;;;7.30;40.24;100333.22;10501380;28;20048;-70
2022/03/03 12:35:20;;;;;;;19.05;17.25;;;;;;;7.25;40.63;100324.56;10501146;28;20069;-71
2022/03/03 12:40:25;;;;;;;19.95;18.10;;;;;;;6.93;40.79;100320.63;10499045;28;20102;-71
2022/03/03 12:45:31;;;;;;;19.23;17.35;;;;;;;6.85;39.74;100317.22;10501289;28;20037;-72
2022/03/03 12:50:33;;;;;;;18.38;16.55;;;;;;;6.73;38.52;100320.88;10499773;28;20037;-72
2022/03/03 12:55:39;;;;;;;20.60;16.25;;;;;;;6.50;39.06;100323.72;10498943;28;20045;-71
2022/03/03 13:00:44;;;;;;;19.08;17.23;;;;;;;6.48;40.12;100317.66;10499675;28;20056;-71
2022/03/03 13:05:50;;;;;;;19.50;17.17;;;;;;;6.50;39.58;100312.41;10499932;28;20064;-71
2022/03/03 13:10:54;;;;;;;18.13;16.40;;;;;;;6.29;39.74;100326.56;10537644;28;20047;-71
2022/03/03 13:16:18;;;;;;;18.67;16.83;;;;;;;6.27;39.80;100318.72;10542538;28;20051;-73
2022/03/03 13:21:23;;;;;;;18.25;16.65;;;;;;;6.25;40.05;100324.88;10542725;28;20526;-71
2022/03/03 13:26:28;;;;;;;18.85;17.08;;;;;;;6.11;40.05;100305.84;10542155;28;20083;-72
2022/03/03 13:31:31;;;;;;;22.23;19.92;;;;;;;6.23;40.69;100308.34;10541334;28;20082;-71
2022/03/03 13:36:41;;;;;;;19.35;17.45;;;;;;;6.19;40.58;100312.72;10510977;28;20102;-71
2022/03/03 13:41:43;;;;;;;19.38;17.42;;;;;;;5.99;40.97;100309.44;10499201;28;20110;-72
2022/03/03 13:47:00;;;;;;;16.98;15.45;;;;;;;5.99;40.45;100306.81;10498526;28;20040;-70
2022/03/03 13:52:02;;;;;;;19.88;16.98;;;;;;;5.97;40.94;100299.00;10498424;28;20041;-72
2022/03/03 13:57:03;;;;;;;18.83;16.92;;;;;;;5.94;40.89;100301.66;10498804;28;20544;-70
2022/03/03 14:02:08;;;;;;;18.38;16.77;;;;;;;5.91;40.88;100298.16;10508197;28;20102;-71
2022/03/03 14:07:26;;;;;;;21.65;16.23;;;;;;;5.89;40.76;100295.59;10506869;28;20044;-72
2022/03/03 14:12:28;;;;;;;19.23;17.50;;;;;;;5.84;41.14;100297.34;10465300;28;20433;-71
2022/03/03 14:17:29;;;;;;;18.52;17.02;;;;;;;5.99;41.27;100289.44;10464103;28;20053;-71
2022/03/03 14:22:32;;;;;;;20.92;17.85;;;;;;;5.90;42.17;100286.00;10487313;28;20052;-72
2022/03/03 14:27:33;;;;;;;17.95;16.38;;;;;;;6.06;40.52;100275.44;10504469;28;20078;-71
2022/03/03 14:32:35;;;;;;;18.15;16.45;;;;;;;5.95;41.47;100273.81;10505689;28;20036;-71
2022/03/03 14:37:38;;;;;;;19.02;17.30;;;;;;;5.87;41.37;100272.97;10505203;28;20048;-71
2022/03/03 14:42:39;;;;;;;19.50;17.48;;;;;;;6.02;40.52;100270.25;10506873;28;20394;-70
2022/03/03 14:47:44;;;;;;;19.73;17.67;;;;;;;5.86;41.15;100268.66;10504778;28;20041;-71
2022/03/03 14:52:56;;;;;;;20.02;18.02;;;;;;;5.94;41.61;100262.50;10488085;28;20048;-70
2022/03/03 14:57:59;;;;;;;18.75;16.88;;;;;;;5.81;40.98;100273.91;10505159;28;20049;-70
2022/03/03 15:03:01;;;;;;;19.52;17.67;;;;;;;5.98;41.00;100274.66;10503986;28;20048;-71
2022/03/03 15:08:04;;;;;;;18.05;16.45;;;;;;;5.82;41.79;100273.03;10504895;28;20518;-70
2022/03/03 15:13:09;;;;;;;18.90;17.17;;;;;;;5.81;41.39;100279.13;10503943;28;20506;-72
2022/03/03 15:18:10;;;;;;;19.63;17.42;;;;;;;5.82;41.02;100281.69;10503466;28;20061;-70
2022/03/03 15:23:12;;;;;;;18.48;16.63;;;;;;;5.81;41.22;100271.28;10504744;28;20037;-70
2022/03/03 15:28:14;;;;;;;23.30;17.40;;;;;;;5.85;41.58;100275.59;10486064;28;20048;-72
2022/03/03 15:38:39;;;;;;;19.88;16.63;;;;;;;5.57;42.48;100275.81;10499843;28;20409;-72
2022/03/03 15:43:41;;;;;;;20.70;17.08;;;;;;;5.68;42.27;100269.66;10500252;28;20039;-71
2022/03/03 15:48:42;;;;;;;25.90;17.42;;;;;;;5.50;42.54;100276.75;10500552;28;20037;-71
2022/03/03 15:53:44;;;;;;;19.02;16.40;;;;;;;5.61;42.58;100284.47;10502650;28;20047;-72
2022/03/03 15:58:46;;;;;;;18.90;17.08;;;;;;;5.35;43.48;100284.66;10503258;28;20048;-72
2022/03/03 16:03:48;;;;;;;20.35;18.55;;;;;;;5.18;43.87;100289.09;10485069;28;20045;-71
2022/03/03 16:08:49;;;;;;;20.45;18.55;;;;;;;5.19;44.85;100296.06;10504158;28;20049;-72
2022/03/03 16:13:52;;;;;;;23.92;21.48;;;;;;;5.00;46.16;100298.78;10502039;28;20048;-71
2022/03/03 16:18:53;;;;;;;28.52;24.08;;;;;;;4.81;48.38;100303.19;10503019;28;20063;-73
2022/03/03 16:23:55;;;;;;;38.13;27.15;;;;;;;4.76;50.51;100309.28;10501646;28;20113;-71
2022/03/03 16:29:16;;;;;;;51.08;30.35;;;;;;;4.52;52.35;100313.72;10501793;28;20068;-73
2022/03/03 16:34:18;;;;;;;57.80;31.65;;;;;;;4.47;52.70;100327.59;10501545;28;20051;-72
2022/03/03 16:39:23;;;;;;;51.08;31.52;;;;;;;4.18;53.87;100335.47;10501162;28;20047;-71
2022/03/03 16:44:25;;;;;;;45.80;29.13;;;;;;;4.18;54.26;100340.66;10501986;28;20040;-72
2022/03/03 16:49:32;;;;;;;44.55;28.27;;;;;;;4.06;54.44;100331.13;10501825;28;20422;-72
2022/03/03 16:54:34;;;;;;;46.67;28.48;;;;;;;3.89;54.94;100346.72;10501487;28;20437;-71
2022/03/03 16:59:36;;;;;;;50.35;30.08;;;;;;;3.70;55.35;100351.06;10500258;28;20051;-72
2022/03/03 17:04:38;;;;;;;52.28;29.27;;;;;;;3.48;56.64;100355.34;10506159;28;20044;-72
2022/03/03 17:09:39;;;;;;;48.88;28.75;;;;;;;3.25;57.24;100362.22;10475386;28;20460;-72
2022/03/03 17:14:42;;;;;;;58.33;30.73;;;;;;;3.17;58.12;100375.19;10500327;28;20045;-72
2022/03/03 17:19:44;;;;;;;52.88;30.70;;;;;;;3.00;58.95;100384.63;10500089;28;20115;-72
2022/03/03 17:24:46;;;;;;;48.95;28.80;;;;;;;3.05;58.78;100388.09;10500737;28;20048;-72
2022/03/03 17:29:47;;;;;;;45.97;27.08;;;;;;;2.99;59.06;100393.28;10501903;28;20044;-72
2022/03/03 17:34:49;;;;;;;46.00;26.70;;;;;;;2.61;59.50;100398.25;10498920;28;20041;-73
2022/03/03 17:39:51;;;;;;;48.97;27.80;;;;;;;2.49;59.92;100401.66;10500570;28;20049;-73
2022/03/03 17:44:53;;;;;;;29.17;22.98;;;;;;;2.38;59.89;100418.84;10484090;28;20040;-72
2022/03/03 17:49:55;;;;;;;33.25;22.13;;;;;;;2.21;60.53;100434.28;10501469;28;20040;-71
2022/03/03 17:54:57;;;;;;;33.97;21.98;;;;;;;2.12;61.04;100431.63;10468102;28;20135;-72
2022/03/03 18:00:06;;;;;;;36.50;21.60;;;;;;;1.96;62.37;100433.22;10483628;28;20060;-72
2022/03/03 18:05:09;;;;;;;37.83;21.95;;;;;;;1.76;64.29;100445.97;10509977;28;20506;-72
2022/03/03 18:10:11;;;;;;;37.40;21.08;;;;;;;1.79;64.81;100451.19;10542004;28;20520;-71
2022/03/03 18:15:13;;;;;;;35.25;20.77;;;;;;;1.63;66.69;100459.63;10543009;28;20036;-71
2022/03/03 18:20:14;;;;;;;37.67;21.90;;;;;;;1.77;67.37;100463.25;10542159;28;20098;-72
2022/03/03 18:25:16;;;;;;;28.92;20.77;;;;;;;1.69;67.67;100467.50;10543396;28;20098;-71
2022/03/03 18:30:22;;;;;;;39.60;22.58;;;;;;;1.58;69.10;100466.50;10524532;28;20052;-71
2022/03/03 18:35:23;;;;;;;39.60;21.70;;;;;;;1.27;69.95;100479.94;10541204;28;20051;-72
2022/03/03 18:40:25;;;;;;;41.10;21.95;;;;;;;1.09;71.37;100487.47;10540851;28;20052;-71
2022/03/03 18:45:28;;;;;;;31.73;21.65;;;;;;;1.18;71.04;100495.34;10526193;28;20469;-72
2022/03/03 18:50:29;;;;;;;40.55;23.23;;;;;;;1.08;71.60;100493.50;10548288;28;20490;-72
2022/03/03 18:55:32;;;;;;;33.55;22.02;;;;;;;0.85;72.66;100490.59;10532900;28;20067;-72
2022/03/03 19:00:34;;;;;;;40.65;22.05;;;;;;;0.82;72.46;100498.28;10550081;28;20073;-72
2022/03/03 19:05:36;;;;;;;42.03;23.23;;;;;;;0.88;72.65;100503.53;10536083;28;20084;-72
2022/03/03 19:10:58;;;;;;;35.28;21.85;;;;;;;0.72;72.92;100511.94;10539606;28;20044;-70
2022/03/03 19:16:02;;;;;;;37.92;20.45;;;;;;;0.83;73.55;100518.13;10555051;28;20070;-71
2022/03/03 19:21:04;;;;;;;39.72;21.98;;;;;;;0.65;73.94;100528.22;10553731;28;20047;-72
2022/03/03 19:26:07;;;;;;;47.10;23.60;;;;;;;0.66;74.52;100532.53;10550286;28;20080;-72
2022/03/03 19:31:10;;;;;;;46.05;22.75;;;;;;;0.66;74.71;100540.28;10550164;28;20044;-72
2022/03/03 19:36:13;;;;;;;48.75;23.63;;;;;;;0.68;75.27;100539.47;10532223;28;20160;-71
2022/03/03 19:41:15;;;;;;;58.38;24.23;;;;;;;0.63;75.85;100548.03;10549594;28;20047;-70
2022/03/03 19:46:16;;;;;;;50.45;23.40;;;;;;;0.44;75.67;100552.00;10550370;28;20036;-72
2022/03/03 19:51:18;;;;;;;61.58;24.63;;;;;;;0.27;76.97;100558.56;10531935;28;20055;-71
2022/03/03 19:56:20;;;;;;;61.65;25.23;;;;;;;0.16;76.18;100555.81;10550627;28;20523;-71
2022/03/03 20:01:21;;;;;;;53.58;23.88;;;;;;;0.07;77.46;100573.72;10515654;28;20054;-70
2022/03/03 20:06:23;;;;;;;49.33;23.83;;;;;;;0.03;77.76;100571.91;10549128;28;20046;-71
2022/03/03 20:11:25;;;;;;;56.75;25.73;;;;;;;-0.01;78.08;100571.84;10548813;28;20048;-71
2022/03/03 20:16:26;;;;;;;59.33;26.05;;;;;;;0.22;78.17;100571.41;10514256;28;20048;-71
2022/03/03 20:21:28;;;;;;;55.95;26.83;;;;;;;-0.18;78.96;100578.41;10529818;28;20055;-70
2022/03/03 20:26:29;;;;;;;51.70;24.55;;;;;;;-0.17;78.91;100584.47;10548752;28;20443;-71
2022/03/03 20:31:32;;;;;;;61.45;25.98;;;;;;;-0.31;79.91;100585.06;10546603;28;20047;-72
2022/03/03 20:36:34;;;;;;;53.97;25.20;;;;;;;-0.24;80.07;100587.75;10546922;28;20082;-71
2022/03/03 20:41:35;;;;;;;58.58;25.77;;;;;;;-0.26;79.94;100590.31;10545523;28;20493;-70
2022/03/03 20:46:37;;;;;;;60.95;27.27;;;;;;;-0.24;80.51;100582.56;10546781;28;20051;-70
2022/03/03 20:51:39;;;;;;;68.18;26.83;;;;;;;-0.36;80.79;100583.19;10547084;28;20077;-70
2022/03/03 20:56:41;;;;;;;54.90;25.70;;;;;;;-0.42;81.34;100590.81;10546342;28;20455;-70
2022/03/03 21:01:43;;;;;;;68.28;27.60;;;;;;;-0.55;82.84;100592.25;10546132;28;20413;-71
2022/03/03 21:06:45;;;;;;;61.17;27.90;;;;;;;-0.53;82.03;100588.88;10545806;28;20071;-70
2022/03/03 21:11:48;;;;;;;62.13;27.25;;;;;;;-0.59;82.80;100596.47;10547585;28;20544;-72
2022/03/03 21:16:50;;;;;;;56.45;25.85;;;;;;;-0.62;82.44;100608.44;10547712;28;20043;-71
2022/03/03 21:21:51;;;;;;;74.85;28.45;;;;;;;-0.70;83.01;100608.28;10528617;28;20048;-72
2022/03/03 21:26:53;;;;;;;67.97;28.30;;;;;;;-0.71;84.49;100621.13;10542613;28;20116;-70
2022/03/03 21:31:55;;;;;;;77.07;29.40;;;;;;;-0.54;84.02;100601.75;10541070;28;20055;-71
2022/03/03 21:36:56;;;;;;;78.32;27.85;;;;;;;-0.60;84.34;100594.75;10524280;28;20124;-71
2022/03/03 21:41:59;;;;;;;66.38;28.17;;;;;;;-0.05;82.48;100582.09;10541994;28;20170;-70
2022/03/03 21:47:00;;;;;;;68.88;27.98;;;;;;;0.33;81.00;100584.56;10541547;28;20059;-71
2022/03/03 21:52:03;;;;;;;67.97;26.58;;;;;;;-0.01;81.66;100594.25;10467581;22;20530;-74
2022/03/03 21:57:05;;;;;;;70.57;28.55;;;;;;;-0.33;83.48;100591.00;10422693;28;20107;-73
2022/03/03 22:02:06;;;;;;;72.10;28.92;;;;;;;-0.42;84.82;100590.81;10404737;28;20046;-74
2022/03/03 22:07:08;;;;;;;67.88;28.98;;;;;;;-0.28;84.06;100584.22;10428286;28;20048;-73
2022/03/03 22:12:11;;;;;;;66.13;26.90;;;;;;;0.43;82.09;100589.03;10425778;28;20063;-74
2022/03/03 22:17:17;;;;;;;60.28;27.00;;;;;;;0.07;82.06;100590.09;10423751;28;20521;-73
2022/03/03 22:22:20;;;;;;;66.82;27.95;;;;;;;-0.08;83.16;100588.09;10430833;28;20045;-72
2022/03/03 22:27:21;;;;;;;71.70;28.67;;;;;;;-0.18;84.24;100593.03;10431994;28;20053;-72
2022/03/03 22:32:23;;;;;;;64.22;27.35;;;;;;;-0.12;84.12;100591.47;10429682;28;20041;-73
2022/03/03 22:37:25;;;;;;;65.85;27.63;;;;;;;-0.17;84.24;100593.06;10430463;28;20072;-73
2022/03/03 22:42:27;;;;;;;71.88;28.80;;;;;;;0.24;81.96;100580.09;10429742;28;20576;-72
2022/03/03 22:47:28;;;;;;;66.53;28.48;;;;;;;-0.16;83.43;100592.22;10412671;28;20049;-71
2022/03/03 22:52:30;;;;;;;58.72;28.77;;;;;;;-0.06;83.25;100583.81;10429544;28;20033;-72
2022/03/03 22:57:32;;;;;;;72.22;30.52;;;;;;;-0.09;83.12;100588.03;10427636;28;20512;-73
2022/03/03 23:05:01;;;;;;;78.18;28.17;;;;;;;-0.11;82.67;100592.31;10429328;28;20053;-72